createdAt,value
2019-06-26T00:00:55.436Z,12.60
2019-06-26T00:02:01.380Z,12.63
2019-06-26T00:03:06.025Z,13.00
2019-06-26T00:04:11.008Z,13.07
2019-06-26T00:05:15.434Z,11.73
2019-06-26T00:06:20.417Z,12.40
2019-06-26T00:07:24.799Z,12.10
2019-06-26T00:08:29.885Z,12.80
2019-06-26T00:09:34.310Z,12.87
2019-06-26T00:10:39.354Z,12.37
2019-06-26T00:11:43.856Z,12.50
2019-06-26T00:12:48.958Z,12.73
2019-06-26T00:13:53.359Z,11.97
2019-06-26T00:14:58.328Z,13.80
2019-06-26T00:16:02.779Z,13.43
2019-06-26T00:17:07.721Z,13.00
2019-06-26T00:18:12.165Z,12.57
2019-06-26T00:19:17.148Z,12.87
2019-06-26T00:20:21.645Z,12.73
2019-06-26T00:21:26.680Z,12.70
2019-06-26T00:22:31.066Z,12.90
2019-06-26T00:23:36.026Z,12.47
2019-06-26T00:24:40.449Z,12.83
2019-06-26T00:25:45.623Z,12.70
2019-06-26T00:26:49.953Z,12.73
2019-06-26T00:27:54.883Z,12.30
2019-06-26T00:28:59.246Z,13.27
2019-06-26T00:30:04.624Z,13.53
2019-06-26T00:31:08.969Z,13.87
2019-06-26T00:32:13.955Z,13.37
2019-06-26T00:33:18.396Z,12.90
2019-06-26T00:34:24.190Z,12.37
2019-06-26T00:35:28.599Z,12.73
2019-06-26T00:36:33.535Z,13.03
2019-06-26T00:37:37.954Z,13.07
2019-06-26T00:38:42.895Z,13.53
2019-06-26T00:39:47.298Z,12.53
2019-06-26T00:40:52.238Z,13.00
2019-06-26T00:41:56.647Z,12.30
2019-06-26T00:43:01.640Z,13.27
2019-06-26T00:44:06.044Z,13.30
2019-06-26T00:45:11.608Z,13.20
2019-06-26T00:46:16.036Z,13.07
2019-06-26T00:47:21.000Z,12.00
2019-06-26T00:48:25.535Z,12.93
2019-06-26T00:49:30.637Z,13.53
2019-06-26T00:50:34.999Z,13.77
2019-06-26T00:51:39.987Z,13.13
2019-06-26T00:52:44.344Z,12.37
2019-06-26T00:53:49.322Z,12.87
2019-06-26T00:54:53.836Z,13.20
2019-06-26T00:55:58.750Z,13.07
2019-06-26T00:57:03.142Z,12.37
2019-06-26T00:58:08.028Z,12.20
2019-06-26T00:59:12.428Z,12.50
2019-06-26T01:00:18.037Z,12.10
2019-06-26T01:01:22.474Z,12.20
2019-06-26T01:02:27.539Z,13.40
2019-06-26T01:03:31.931Z,12.70
2019-06-26T01:04:39.482Z,11.87
2019-06-26T01:05:43.880Z,12.70
2019-06-26T01:06:48.864Z,13.43
2019-06-26T01:07:53.211Z,12.97
2019-06-26T01:08:58.182Z,13.03
2019-06-26T01:10:02.659Z,13.53
2019-06-26T01:11:07.654Z,13.30
2019-06-26T01:12:12.287Z,12.80
2019-06-26T01:13:17.223Z,12.83
2019-06-26T01:14:21.538Z,13.60
2019-06-26T01:15:26.466Z,12.77
2019-06-26T01:16:30.796Z,13.07
2019-06-26T01:17:35.784Z,12.53
2019-06-26T01:18:40.105Z,11.80
2019-06-26T01:19:45.130Z,13.37
2019-06-26T01:20:49.438Z,13.43
2019-06-26T01:21:54.386Z,12.97
2019-06-26T01:22:58.707Z,13.30
2019-06-26T01:24:03.781Z,13.80
2019-06-26T01:27:12.590Z,13.97
2019-06-26T01:28:17.528Z,14.30
2019-06-26T01:29:21.943Z,14.30
2019-06-26T01:30:27.852Z,13.47
2019-06-26T01:31:32.196Z,13.30
2019-06-26T01:32:37.181Z,13.27
2019-06-26T01:33:41.522Z,13.67
2019-06-26T01:34:46.416Z,13.73
2019-06-26T01:35:50.906Z,13.60
2019-06-26T01:36:55.885Z,14.47
2019-06-26T01:38:00.460Z,14.37
2019-06-26T01:39:07.336Z,15.30
2019-06-26T01:40:11.924Z,14.20
2019-06-26T01:41:16.841Z,15.27
2019-06-26T01:42:21.283Z,14.33
2019-06-26T01:43:26.219Z,14.30
2019-06-26T01:44:30.626Z,14.83
2019-06-26T01:45:35.573Z,15.33
2019-06-26T01:46:39.988Z,16.67
2019-06-26T01:47:44.884Z,15.70
2019-06-26T01:48:49.305Z,14.93
2019-06-26T01:49:54.301Z,14.20
2019-06-26T01:50:58.859Z,15.73
2019-06-26T01:52:03.896Z,14.90
2019-06-26T01:53:08.326Z,15.33
2019-06-26T01:54:13.276Z,15.20
2019-06-26T01:55:17.661Z,15.07
2019-06-26T01:56:22.800Z,15.20
2019-06-26T01:57:27.143Z,16.17
2019-06-26T01:58:32.218Z,15.67
2019-06-26T01:59:36.545Z,15.10
2019-06-26T02:00:41.546Z,15.57
2019-06-26T02:01:46.016Z,15.40
2019-06-26T02:02:50.953Z,15.70
2019-06-26T02:03:55.301Z,15.43
2019-06-26T02:05:00.436Z,16.07
2019-06-26T02:06:05.091Z,16.87
2019-06-26T02:07:10.163Z,15.77
2019-06-26T02:08:14.624Z,16.43
2019-06-26T02:09:19.758Z,16.23
2019-06-26T02:10:24.271Z,15.47
2019-06-26T02:11:29.358Z,15.60
2019-06-26T02:12:33.744Z,14.97
2019-06-26T02:13:38.725Z,16.27
2019-06-26T02:14:43.154Z,15.73
2019-06-26T02:15:48.182Z,16.07
2019-06-26T02:16:53.196Z,15.93
2019-06-26T02:17:58.296Z,15.73
2019-06-26T02:19:04.066Z,16.60
2019-06-26T02:20:09.973Z,15.40
2019-06-26T02:21:14.746Z,15.43
2019-06-26T02:22:19.739Z,15.97
2019-06-26T02:23:24.076Z,15.40
2019-06-26T02:24:29.586Z,16.70
2019-06-26T02:25:33.984Z,15.70
2019-06-26T02:26:38.906Z,17.00
2019-06-26T02:27:43.356Z,16.60
2019-06-26T02:28:48.340Z,16.23
2019-06-26T02:29:52.757Z,16.10
2019-06-26T02:30:57.789Z,16.07
2019-06-26T02:32:02.174Z,16.37
2019-06-26T02:33:07.185Z,16.40
2019-06-26T02:34:11.651Z,16.83
2019-06-26T02:35:16.737Z,16.40
2019-06-26T02:36:21.311Z,15.90
2019-06-26T02:37:26.236Z,16.43
2019-06-26T02:38:30.633Z,16.77
2019-06-26T02:39:35.590Z,16.67
2019-06-26T02:40:39.950Z,16.60
2019-06-26T02:41:44.890Z,16.20
2019-06-26T02:42:49.340Z,16.57
2019-06-26T02:43:54.581Z,16.13
2019-06-26T02:44:58.953Z,15.53
2019-06-26T02:46:04.063Z,16.83
2019-06-26T02:47:19.405Z,17.07
2019-06-26T02:48:15.197Z,15.73
2019-06-26T02:49:19.699Z,16.00
2019-06-26T02:50:24.652Z,17.23
2019-06-26T02:51:28.987Z,16.77
2019-06-26T02:52:34.059Z,18.43
2019-06-26T02:53:38.700Z,17.60
2019-06-26T02:54:43.672Z,18.13
2019-06-26T02:55:48.495Z,18.40
2019-06-26T02:56:53.575Z,18.27
2019-06-26T02:57:57.958Z,18.73
2019-06-26T02:59:03.052Z,18.47
2019-06-26T03:00:07.711Z,19.07
2019-06-26T03:01:12.838Z,17.00
2019-06-26T03:02:17.659Z,18.53
2019-06-26T03:03:22.784Z,18.57
2019-06-26T03:04:27.094Z,19.30
2019-06-26T03:05:32.169Z,17.47
2019-06-26T03:06:36.595Z,17.33
2019-06-26T03:07:41.511Z,17.40
2019-06-26T03:08:46.014Z,17.47
2019-06-26T03:09:50.994Z,17.87
2019-06-26T03:10:55.509Z,17.53
2019-06-26T03:12:00.691Z,16.73
2019-06-26T03:13:05.339Z,17.57
2019-06-26T03:14:10.273Z,17.27
2019-06-26T03:15:14.867Z,17.70
2019-06-26T03:16:19.865Z,18.13
2019-06-26T03:17:24.282Z,18.93
2019-06-26T03:18:29.218Z,17.70
2019-06-26T03:19:33.557Z,18.60
2019-06-26T03:20:42.357Z,17.30
2019-06-26T03:21:46.711Z,19.40
2019-06-26T03:22:51.802Z,18.43
2019-06-26T03:23:56.224Z,19.17
2019-06-26T03:25:01.125Z,18.60
2019-06-26T03:26:05.434Z,19.23
2019-06-26T03:27:10.351Z,18.40
2019-06-26T03:28:14.909Z,17.63
2019-06-26T03:29:19.915Z,17.53
2019-06-26T03:30:24.539Z,17.87
2019-06-26T03:31:29.541Z,18.23
2019-06-26T03:32:34.034Z,17.90
2019-06-26T03:33:39.177Z,17.63
2019-06-26T03:34:43.668Z,18.47
2019-06-26T03:35:48.689Z,17.40
2019-06-26T03:36:53.025Z,17.87
2019-06-26T03:37:57.935Z,17.77
2019-06-26T03:39:02.360Z,18.00
2019-06-26T03:40:07.525Z,17.43
2019-06-26T03:41:11.927Z,18.10
2019-06-26T03:42:16.846Z,16.90
2019-06-26T03:43:21.269Z,17.70
2019-06-26T03:44:26.207Z,16.83
2019-06-26T03:45:30.700Z,16.57
2019-06-26T03:46:35.995Z,17.50
2019-06-26T03:47:40.428Z,17.10
2019-06-26T03:48:45.369Z,17.20
2019-06-26T03:49:49.842Z,17.27
2019-06-26T03:50:54.900Z,17.00
2019-06-26T03:51:59.360Z,17.27
2019-06-26T03:53:04.404Z,17.27
2019-06-26T03:54:08.772Z,18.37
2019-06-26T03:55:13.837Z,17.57
2019-06-26T03:56:18.179Z,18.40
2019-06-26T03:57:23.276Z,17.30
2019-06-26T03:58:27.716Z,17.57
2019-06-26T03:59:32.740Z,17.00
2019-06-26T04:00:39.941Z,18.03
2019-06-26T04:01:45.029Z,17.30
2019-06-26T04:02:49.461Z,16.57
2019-06-26T04:03:57.352Z,16.97
2019-06-26T04:05:00.496Z,16.87
2019-06-26T04:06:05.595Z,16.30
2019-06-26T04:07:09.963Z,17.13
2019-06-26T04:08:14.940Z,17.43
2019-06-26T04:09:19.391Z,15.87
2019-06-26T04:10:24.415Z,16.67
2019-06-26T04:11:28.949Z,16.30
2019-06-26T04:12:33.967Z,16.53
2019-06-26T04:13:38.402Z,16.50
2019-06-26T04:14:43.445Z,17.27
2019-06-26T04:15:50.758Z,16.67
2019-06-26T04:16:54.498Z,16.13
2019-06-26T04:17:59.029Z,16.87
2019-06-26T04:19:03.957Z,15.60
2019-06-26T04:20:08.403Z,17.40
2019-06-26T04:21:13.303Z,15.80
2019-06-26T04:22:17.639Z,15.80
2019-06-26T04:23:22.569Z,16.50
2019-06-26T04:24:26.917Z,16.63
2019-06-26T04:25:31.899Z,16.47
2019-06-26T04:26:36.316Z,15.73
2019-06-26T04:27:41.228Z,15.93
2019-06-26T04:28:45.683Z,15.07
2019-06-26T04:29:50.627Z,17.33
2019-06-26T04:30:54.939Z,17.17
2019-06-26T04:31:59.927Z,15.77
2019-06-26T04:33:04.338Z,17.70
2019-06-26T04:34:09.302Z,16.57
2019-06-26T04:35:14.595Z,15.57
2019-06-26T04:36:19.499Z,15.53
2019-06-26T04:37:23.823Z,15.80
2019-06-26T04:38:28.710Z,15.83
2019-06-26T04:39:33.032Z,15.87
2019-06-26T04:40:37.926Z,15.60
2019-06-26T04:41:42.308Z,16.40
2019-06-26T04:42:47.211Z,15.70
2019-06-26T04:43:51.534Z,16.07
2019-06-26T04:44:56.503Z,16.03
2019-06-26T04:46:00.830Z,14.53
2019-06-26T04:47:05.836Z,15.90
2019-06-26T04:48:10.382Z,15.43
2019-06-26T04:49:15.846Z,14.83
2019-06-26T04:50:20.724Z,14.63
2019-06-26T04:51:25.696Z,14.20
2019-06-26T04:52:30.093Z,14.13
2019-06-26T04:53:35.078Z,15.27
2019-06-26T04:54:39.399Z,13.73
2019-06-26T04:55:44.307Z,13.87
2019-06-26T04:56:48.694Z,13.17
2019-06-26T04:57:53.660Z,14.03
2019-06-26T04:58:58.029Z,14.00
2019-06-26T05:00:06.226Z,13.87
2019-06-26T05:01:10.626Z,13.77
2019-06-26T05:02:15.571Z,13.40
2019-06-26T05:03:20.088Z,13.73
2019-06-26T05:04:24.996Z,12.70
2019-06-26T05:05:39.092Z,13.90
2019-06-26T05:06:36.289Z,12.73
2019-06-26T05:07:40.798Z,12.87
2019-06-26T05:08:45.670Z,12.60
2019-06-26T05:09:50.047Z,11.80
2019-06-26T05:10:55.015Z,11.63
2019-06-26T05:11:59.547Z,11.47
2019-06-26T05:13:04.487Z,12.60
2019-06-26T05:14:08.799Z,11.83
2019-06-26T05:15:14.677Z,11.87
2019-06-26T05:16:20.445Z,10.97
2019-06-26T05:17:25.934Z,10.80
2019-06-26T05:18:30.260Z,10.20
2019-06-26T05:19:35.250Z,10.10
2019-06-26T05:20:39.647Z,9.70
2019-06-26T05:21:44.578Z,9.60
2019-06-26T05:22:48.883Z,9.67
2019-06-26T05:23:53.865Z,10.50
2019-06-26T05:24:58.173Z,9.73
2019-06-26T05:26:03.199Z,9.43
2019-06-26T05:27:07.527Z,9.50
2019-06-26T05:28:12.488Z,9.40
2019-06-26T05:29:16.809Z,9.07
2019-06-26T05:30:21.839Z,9.33
2019-06-26T05:31:26.326Z,9.27
2019-06-26T05:32:31.295Z,9.13
2019-06-26T05:33:35.671Z,9.10
2019-06-26T05:34:40.623Z,9.78
2019-06-26T05:35:44.942Z,9.70
2019-06-26T05:36:49.836Z,9.78
2019-06-26T05:37:54.226Z,9.20
2019-06-26T05:38:59.151Z,9.27
2019-06-26T05:40:04.097Z,9.55
2019-06-26T05:41:10.295Z,9.10
2019-06-26T05:42:14.611Z,9.30
2019-06-26T05:43:19.507Z,9.73
2019-06-26T05:44:23.822Z,9.70
2019-06-26T05:45:28.809Z,9.68
2019-06-26T05:46:33.699Z,10.03
2019-06-26T05:47:38.591Z,10.00
2019-06-26T05:48:42.923Z,10.00
2019-06-26T05:49:47.893Z,9.98
2019-06-26T05:50:52.190Z,9.75
2019-06-26T05:51:57.110Z,9.88
2019-06-26T05:53:01.563Z,9.78
2019-06-26T05:54:06.627Z,10.30
2019-06-26T05:55:11.331Z,11.08
2019-06-26T05:56:16.323Z,10.67
2019-06-26T05:57:20.943Z,10.23
2019-06-26T05:58:25.878Z,11.03
2019-06-26T05:59:30.203Z,10.18
2019-06-26T06:00:35.101Z,11.25
2019-06-26T06:01:39.545Z,10.98
2019-06-26T06:02:44.610Z,12.00
2019-06-26T06:03:48.968Z,10.50
2019-06-26T06:04:54.297Z,10.48
2019-06-26T06:05:58.808Z,11.28
2019-06-26T06:07:03.899Z,10.93
2019-06-26T06:08:08.360Z,10.55
2019-06-26T06:09:13.376Z,11.05
2019-06-26T06:10:18.286Z,10.48
2019-06-26T06:11:23.279Z,10.58
2019-06-26T06:12:27.732Z,10.17
2019-06-26T06:13:32.647Z,10.48
2019-06-26T06:14:37.050Z,9.83
2019-06-26T06:15:41.978Z,10.70
2019-06-26T06:16:47.990Z,10.68
2019-06-26T06:17:53.147Z,11.00
2019-06-26T06:18:57.470Z,11.28
2019-06-26T06:20:02.614Z,11.18
2019-06-26T06:21:07.060Z,10.93
2019-06-26T06:22:12.048Z,11.45
2019-06-26T06:23:16.539Z,11.83
2019-06-26T06:24:21.460Z,12.03
2019-06-26T06:25:25.816Z,11.63
2019-06-26T06:26:30.860Z,11.95
2019-06-26T06:27:35.481Z,10.93
2019-06-26T06:28:40.682Z,11.60
2019-06-26T06:29:45.020Z,12.33
2019-06-26T06:30:50.151Z,11.20
2019-06-26T06:31:54.542Z,11.60
2019-06-26T06:32:59.600Z,11.90
2019-06-26T06:34:04.160Z,11.40
2019-06-26T06:35:10.171Z,12.05
2019-06-26T06:36:14.810Z,10.85
2019-06-26T06:37:19.856Z,12.15
2019-06-26T06:38:24.238Z,11.80
2019-06-26T06:39:29.191Z,11.25
2019-06-26T06:40:33.763Z,11.60
2019-06-26T06:41:39.121Z,11.63
2019-06-26T06:42:43.505Z,12.60
2019-06-26T06:43:48.642Z,12.00
2019-06-26T06:44:53.191Z,11.50
2019-06-26T06:45:58.499Z,12.90
2019-06-26T06:47:04.560Z,12.13
2019-06-26T06:48:09.672Z,12.88
2019-06-26T06:49:14.107Z,11.88
2019-06-26T06:50:19.301Z,11.83
2019-06-26T06:51:23.876Z,12.75
2019-06-26T06:52:28.936Z,12.05
2019-06-26T06:53:33.405Z,11.80
2019-06-26T06:54:38.385Z,11.93
2019-06-26T06:55:42.933Z,12.05
2019-06-26T06:56:47.914Z,11.73
2019-06-26T06:57:52.402Z,11.35
2019-06-26T06:58:57.374Z,11.68
2019-06-26T07:00:01.977Z,12.00
2019-06-26T07:01:07.159Z,11.97
2019-06-26T07:02:11.878Z,11.35
2019-06-26T07:03:17.044Z,11.08
2019-06-26T07:04:21.732Z,10.55
2019-06-26T07:05:26.993Z,11.00
2019-06-26T07:06:31.666Z,10.55
2019-06-26T07:07:36.875Z,10.60
2019-06-26T07:08:41.319Z,10.78
2019-06-26T07:09:46.401Z,10.23
2019-06-26T07:10:51.303Z,10.45
2019-06-26T07:11:56.410Z,11.55
2019-06-26T07:13:01.016Z,10.25
2019-06-26T07:14:06.539Z,10.05
2019-06-26T07:15:11.461Z,10.00
2019-06-26T07:16:16.630Z,10.40
2019-06-26T07:17:21.568Z,10.15
2019-06-26T07:18:26.976Z,10.20
2019-06-26T07:19:31.417Z,11.00
2019-06-26T07:20:36.649Z,11.03
2019-06-26T07:21:41.476Z,10.08
2019-06-26T07:22:46.538Z,9.83
2019-06-26T07:23:51.026Z,9.63
2019-06-26T07:24:56.342Z,9.68
2019-06-26T07:26:01.121Z,10.60
2019-06-26T07:27:06.322Z,10.35
2019-06-26T07:28:10.898Z,11.53
2019-06-26T07:29:15.912Z,10.98
2019-06-26T07:30:20.560Z,10.25
2019-06-26T07:31:25.663Z,11.05
2019-06-26T07:32:30.092Z,11.43
2019-06-26T07:33:35.207Z,10.23
2019-06-26T07:34:39.646Z,10.80
2019-06-26T07:35:44.751Z,10.20
2019-06-26T07:36:49.317Z,10.48
2019-06-26T07:37:54.512Z,10.10
2019-06-26T07:38:58.999Z,9.78
2019-06-26T07:40:04.123Z,10.18
2019-06-26T07:41:08.594Z,10.10
2019-06-26T07:42:13.571Z,10.63
2019-06-26T07:43:17.997Z,9.95
2019-06-26T07:44:23.221Z,10.20
2019-06-26T07:45:27.714Z,9.90
2019-06-26T07:46:32.772Z,9.40
2019-06-26T07:47:42.957Z,9.45
2019-06-26T07:48:44.044Z,9.90
2019-06-26T07:49:48.536Z,9.35
2019-06-26T07:50:53.783Z,10.58
2019-06-26T07:51:58.275Z,10.60
2019-06-26T07:53:04.386Z,9.85
2019-06-26T07:54:08.795Z,10.13
2019-06-26T07:55:14.260Z,9.65
2019-06-26T07:56:18.640Z,9.75
2019-06-26T07:57:23.752Z,11.20
2019-06-26T07:58:28.166Z,10.10
2019-06-26T07:59:33.105Z,9.38
2019-06-26T08:00:37.650Z,9.18
2019-06-26T08:01:42.788Z,9.18
2019-06-26T08:02:47.236Z,8.83
2019-06-26T08:03:52.329Z,9.23
2019-06-26T08:04:56.883Z,8.80
2019-06-26T08:06:02.044Z,8.40
2019-06-26T08:07:06.680Z,9.38
2019-06-26T08:08:14.537Z,8.93
2019-06-26T08:09:17.764Z,8.08
2019-06-26T08:10:22.735Z,8.80
2019-06-26T08:11:27.142Z,8.70
2019-06-26T08:12:32.082Z,9.30
2019-06-26T08:13:36.691Z,8.68
2019-06-26T08:14:41.790Z,8.40
2019-06-26T08:15:46.166Z,8.88
2019-06-26T08:16:51.501Z,9.45
2019-06-26T08:18:00.954Z,8.68
2019-06-26T08:19:02.813Z,9.38
2019-06-26T08:20:07.610Z,8.73
2019-06-26T08:21:13.162Z,8.53
2019-06-26T08:22:17.783Z,8.38
2019-06-26T08:23:22.864Z,8.10
2019-06-26T08:24:27.459Z,8.10
2019-06-26T08:25:32.748Z,7.97
2019-06-26T08:26:37.133Z,9.08
2019-06-26T08:27:42.183Z,8.93
2019-06-26T08:28:46.516Z,9.45
2019-06-26T08:29:51.754Z,8.78
2019-06-26T08:30:56.367Z,7.53
2019-06-26T08:32:01.612Z,7.67
2019-06-26T08:33:06.126Z,8.30
2019-06-26T08:34:11.425Z,7.70
2019-06-26T08:35:17.611Z,8.25
2019-06-26T08:36:22.942Z,7.65
2019-06-26T08:37:27.659Z,8.58
2019-06-26T08:38:32.705Z,8.13
2019-06-26T08:39:37.448Z,6.85
2019-06-26T08:40:42.364Z,7.35
2019-06-26T08:41:46.882Z,7.05
2019-06-26T08:42:51.874Z,7.90
2019-06-26T08:43:56.391Z,7.20
2019-06-26T08:45:01.596Z,7.60
2019-06-26T08:46:06.101Z,7.47
2019-06-26T08:47:11.051Z,6.87
2019-06-26T08:48:28.237Z,7.62
2019-06-26T08:49:25.920Z,7.62
2019-06-26T08:50:28.634Z,7.25
2019-06-26T08:51:33.705Z,7.30
2019-06-26T08:52:38.484Z,7.28
2019-06-26T08:53:43.561Z,7.15
2019-06-26T08:54:48.044Z,6.62
2019-06-26T08:55:53.030Z,7.15
2019-06-26T08:56:57.687Z,6.62
2019-06-26T08:58:03.107Z,6.60
2019-06-26T08:59:07.584Z,6.47
2019-06-26T09:00:13.769Z,7.42
2019-06-26T09:01:18.272Z,7.30
2019-06-26T09:02:23.409Z,7.03
2019-06-26T09:03:27.917Z,7.08
2019-06-26T09:04:32.946Z,6.22
2019-06-26T09:05:47.468Z,6.90
2019-06-26T09:06:44.465Z,6.45
2019-06-26T09:07:48.914Z,6.92
2019-06-26T09:08:54.168Z,6.78
2019-06-26T09:09:58.653Z,8.03
2019-06-26T09:11:03.973Z,7.25
2019-06-26T09:12:08.541Z,7.28
2019-06-26T09:13:13.652Z,7.33
2019-06-26T09:14:18.537Z,7.72
2019-06-26T09:15:23.973Z,6.67
2019-06-26T09:16:28.418Z,6.83
2019-06-26T09:17:33.379Z,6.40
2019-06-26T09:18:37.992Z,7.40
2019-06-26T09:19:43.260Z,7.97
2019-06-26T09:20:47.654Z,6.75
2019-06-26T09:21:52.772Z,7.78
2019-06-26T09:22:57.396Z,8.23
2019-06-26T09:24:02.483Z,7.50
2019-06-26T09:25:21.200Z,8.03
2019-06-26T09:26:15.073Z,7.17
2019-06-26T09:27:19.667Z,7.45
2019-06-26T09:28:24.926Z,6.40
2019-06-26T09:29:29.623Z,7.58
2019-06-26T09:30:34.704Z,7.65
2019-06-26T09:31:39.037Z,7.62
2019-06-26T09:32:43.997Z,7.55
2019-06-26T09:33:48.408Z,6.70
2019-06-26T09:34:53.438Z,7.70
2019-06-26T09:35:57.847Z,7.62
2019-06-26T09:37:02.956Z,6.92
2019-06-26T09:38:07.391Z,7.15
2019-06-26T09:39:12.462Z,6.65
2019-06-26T09:40:17.475Z,7.55
2019-06-26T09:41:22.669Z,7.00
2019-06-26T09:42:27.007Z,6.65
2019-06-26T09:43:32.080Z,8.18
2019-06-26T09:44:36.593Z,7.42
2019-06-26T09:45:41.524Z,7.58
2019-06-26T09:46:45.931Z,7.75
2019-06-26T09:47:51.019Z,7.83
2019-06-26T09:48:55.477Z,8.78
2019-06-26T09:50:00.532Z,7.87
2019-06-26T09:51:05.792Z,8.43
2019-06-26T09:52:10.872Z,7.30
2019-06-26T09:53:15.467Z,7.83
2019-06-26T09:54:20.428Z,7.95
2019-06-26T09:55:24.935Z,7.50
2019-06-26T09:56:29.828Z,8.18
2019-06-26T09:57:34.369Z,7.33
2019-06-26T09:58:39.354Z,7.45
2019-06-26T09:59:43.979Z,7.17
2019-06-26T10:00:48.902Z,7.97
2019-06-26T10:01:53.335Z,8.18
2019-06-26T10:02:58.292Z,8.93
2019-06-26T10:04:03.302Z,9.10
2019-06-26T10:05:09.086Z,8.25
2019-06-26T10:06:13.679Z,8.05
2019-06-26T10:07:18.619Z,7.10
2019-06-26T10:08:23.153Z,6.80
2019-06-26T10:09:28.164Z,6.67
2019-06-26T10:10:32.740Z,5.90
2019-06-26T10:11:37.796Z,6.58
2019-06-26T10:12:42.211Z,7.00
2019-06-26T10:13:47.255Z,7.50
2019-06-26T10:14:51.620Z,6.28
2019-06-26T10:16:00.171Z,6.40
2019-06-26T10:17:02.737Z,5.90
2019-06-26T10:18:07.832Z,6.20
2019-06-26T10:19:12.165Z,6.20
2019-06-26T10:20:17.795Z,5.78
2019-06-26T10:21:23.706Z,5.97
2019-06-26T10:22:28.919Z,5.30
2019-06-26T10:23:33.470Z,5.20
2019-06-26T10:24:38.389Z,5.47
2019-06-26T10:25:42.957Z,4.50
2019-06-26T10:26:48.032Z,5.22
2019-06-26T10:27:52.637Z,5.22
2019-06-26T10:28:57.771Z,4.83
2019-06-26T10:30:02.184Z,5.15
2019-06-26T10:31:07.349Z,4.97
2019-06-26T10:32:11.828Z,5.50
2019-06-26T10:33:16.762Z,5.17
2019-06-26T10:34:21.204Z,4.72
2019-06-26T10:35:26.359Z,5.03
2019-06-26T10:36:30.713Z,5.60
2019-06-26T10:37:35.767Z,5.83
2019-06-26T10:38:40.178Z,5.03
2019-06-26T10:39:45.220Z,5.17
2019-06-26T10:40:49.615Z,5.53
2019-06-26T10:41:55.216Z,4.92
2019-06-26T10:42:59.925Z,4.50
2019-06-26T10:44:05.170Z,4.75
2019-06-26T10:45:10.111Z,4.87
2019-06-26T10:46:15.041Z,4.80
2019-06-26T10:47:19.469Z,5.12
2019-06-26T10:48:24.471Z,4.58
2019-06-26T10:49:28.944Z,4.58
2019-06-26T10:50:34.015Z,4.97
2019-06-26T10:51:38.521Z,4.72
2019-06-26T10:52:43.608Z,4.40
2019-06-26T10:53:47.969Z,4.17
2019-06-26T10:54:52.969Z,4.37
2019-06-26T10:55:57.457Z,4.20
2019-06-26T10:57:02.382Z,4.55
2019-06-26T10:58:06.843Z,4.20
2019-06-26T10:59:11.899Z,4.62
2019-06-26T11:00:16.604Z,4.50
2019-06-26T11:01:21.671Z,4.62
2019-06-26T11:02:26.137Z,4.47
2019-06-26T11:03:31.190Z,4.62
2019-06-26T11:04:35.737Z,4.53
2019-06-26T11:05:41.135Z,4.55
2019-06-26T11:06:45.582Z,4.08
2019-06-26T11:07:50.508Z,4.05
2019-06-26T11:08:54.976Z,4.35
2019-06-26T11:09:59.925Z,4.05
2019-06-26T11:11:04.369Z,4.50
2019-06-26T11:12:09.343Z,4.45
2019-06-26T11:13:13.744Z,4.70
2019-06-26T11:14:18.912Z,4.30
2019-06-26T11:15:23.371Z,4.35
2019-06-26T11:16:28.303Z,3.92
2019-06-26T11:17:32.688Z,4.33
2019-06-26T11:18:37.756Z,4.30
2019-06-26T11:19:44.170Z,4.28
2019-06-26T11:20:48.922Z,4.22
2019-06-26T11:21:53.339Z,4.00
2019-06-26T11:22:58.339Z,4.30
2019-06-26T11:24:02.749Z,4.12
2019-06-26T11:25:08.393Z,4.15
2019-06-26T11:26:12.708Z,4.42
2019-06-26T11:27:18.556Z,4.15
2019-06-26T11:28:22.860Z,3.80
2019-06-26T11:29:27.906Z,4.20
2019-06-26T11:30:32.307Z,4.50
2019-06-26T11:31:37.220Z,3.83
2019-06-26T11:32:41.703Z,4.40
2019-06-26T11:33:47.059Z,3.85
2019-06-26T11:34:51.463Z,4.12
2019-06-26T11:35:56.451Z,4.00
2019-06-26T11:37:04.362Z,4.10
2019-06-26T11:38:07.510Z,4.03
2019-06-26T11:39:12.043Z,3.80
2019-06-26T11:40:17.278Z,4.45
2019-06-26T11:41:21.661Z,4.33
2019-06-26T11:42:26.703Z,4.10
2019-06-26T11:43:31.036Z,3.67
2019-06-26T11:44:36.068Z,4.15
2019-06-26T11:45:40.586Z,4.12
2019-06-26T11:46:45.715Z,3.90
2019-06-26T11:47:50.225Z,4.55
2019-06-26T11:48:55.259Z,4.08
2019-06-26T11:50:00.488Z,4.15
2019-06-26T11:51:05.857Z,3.30
2019-06-26T11:52:10.386Z,4.10
2019-06-26T11:53:15.519Z,3.98
2019-06-26T11:54:19.868Z,3.80
2019-06-26T11:55:24.983Z,4.03
2019-06-26T11:56:29.491Z,3.72
2019-06-26T11:57:34.564Z,3.67
2019-06-26T11:58:39.104Z,4.03
2019-06-26T11:59:44.132Z,3.85
2019-06-26T12:00:48.639Z,3.52
2019-06-26T12:01:53.848Z,3.50
2019-06-26T12:02:58.299Z,3.25
2019-06-26T12:04:03.311Z,3.27
2019-06-26T12:05:07.964Z,3.25
2019-06-26T12:06:18.850Z,3.67
2019-06-26T12:07:19.763Z,3.65
2019-06-26T12:08:24.708Z,3.60
2019-06-26T12:09:29.134Z,4.17
2019-06-26T12:10:34.148Z,3.37
2019-06-26T12:11:38.765Z,4.55
2019-06-26T12:12:44.028Z,3.50
2019-06-26T12:13:48.399Z,3.77
2019-06-26T12:14:53.412Z,3.58
2019-06-26T12:15:58.035Z,3.17
2019-06-26T12:17:03.059Z,2.98
2019-06-26T12:18:07.579Z,3.17
2019-06-26T12:19:12.680Z,3.92
2019-06-26T12:20:19.620Z,3.42
2019-06-26T12:21:24.120Z,3.77
2019-06-26T12:22:28.651Z,3.30
2019-06-26T12:23:33.681Z,3.00
2019-06-26T12:24:38.129Z,2.92
2019-06-26T12:25:43.051Z,3.33
2019-06-26T12:26:47.544Z,3.12
2019-06-26T12:27:52.776Z,3.20
2019-06-26T12:28:57.303Z,3.35
2019-06-26T12:30:02.363Z,3.20
2019-06-26T12:31:06.849Z,2.90
2019-06-26T12:32:12.056Z,3.10
2019-06-26T12:33:16.720Z,3.25
2019-06-26T12:34:21.833Z,3.00
2019-06-26T12:35:26.370Z,3.33
2019-06-26T12:36:31.543Z,2.85
2019-06-26T12:37:37.960Z,3.50
2019-06-26T12:38:43.067Z,2.87
2019-06-26T12:39:47.587Z,3.10
2019-06-26T12:40:52.648Z,3.10
2019-06-26T12:41:57.198Z,3.25
2019-06-26T12:43:02.279Z,3.08
2019-06-26T12:44:06.821Z,3.25
2019-06-26T12:45:12.668Z,3.27
2019-06-26T12:46:18.264Z,3.10
2019-06-26T12:47:23.654Z,3.33
2019-06-26T12:48:28.138Z,3.47
2019-06-26T12:49:33.087Z,3.75
2019-06-26T12:50:37.471Z,3.80
2019-06-26T12:51:42.383Z,3.90
2019-06-26T12:52:46.784Z,3.60
2019-06-26T12:53:51.773Z,3.52
2019-06-26T12:54:56.228Z,3.62
2019-06-26T12:56:01.544Z,3.80
2019-06-26T12:57:06.657Z,4.10
2019-06-26T12:58:14.929Z,3.33
2019-06-26T12:59:18.069Z,3.90
2019-06-26T13:00:23.206Z,3.60
2019-06-26T13:01:27.725Z,3.75
2019-06-26T13:02:32.788Z,3.67
2019-06-26T13:03:37.352Z,3.40
2019-06-26T13:04:44.910Z,3.05
2019-06-26T13:05:48.744Z,3.60
2019-06-26T13:06:53.853Z,3.75
2019-06-26T13:07:58.459Z,3.40
2019-06-26T13:09:03.657Z,3.70
2019-06-26T13:10:09.224Z,3.40
2019-06-26T13:11:14.356Z,3.65
2019-06-26T13:12:19.144Z,3.90
2019-06-26T13:13:24.373Z,3.62
2019-06-26T13:14:28.831Z,4.00
2019-06-26T13:15:33.869Z,4.03
2019-06-26T13:16:38.424Z,3.75
2019-06-26T13:17:43.475Z,3.75
2019-06-26T13:18:47.856Z,4.15
2019-06-26T13:19:52.910Z,3.50
2019-06-26T13:20:57.352Z,3.75
2019-06-26T13:22:02.404Z,4.83
2019-06-26T13:23:06.947Z,4.35
2019-06-26T13:24:12.055Z,4.03
2019-06-26T13:25:17.696Z,4.25
2019-06-26T13:26:22.784Z,4.33
2019-06-26T13:27:27.275Z,4.10
2019-06-26T13:28:32.222Z,4.67
2019-06-26T13:29:36.726Z,4.50
2019-06-26T13:30:42.106Z,4.60
2019-06-26T13:31:46.578Z,4.30
2019-06-26T13:32:51.671Z,4.50
2019-06-26T13:33:56.059Z,4.60
2019-06-26T13:35:01.089Z,4.10
2019-06-26T13:36:05.799Z,3.70
2019-06-26T13:37:10.728Z,4.67
2019-06-26T13:38:15.169Z,4.55
2019-06-26T13:39:20.179Z,4.30
2019-06-26T13:40:24.692Z,4.50
2019-06-26T13:41:29.665Z,4.20
2019-06-26T13:42:34.157Z,4.35
2019-06-26T13:43:39.078Z,3.98
2019-06-26T13:44:43.644Z,4.75
2019-06-26T13:45:48.664Z,4.42
2019-06-26T13:46:53.229Z,4.62
2019-06-26T13:47:58.208Z,4.03
2019-06-26T13:49:02.626Z,4.00
2019-06-26T13:50:08.120Z,4.10
2019-06-26T13:51:12.519Z,3.65
2019-06-26T13:52:17.479Z,3.92
2019-06-26T13:53:21.864Z,3.87
2019-06-26T13:54:26.839Z,4.12
2019-06-26T13:55:31.230Z,3.90
2019-06-26T13:56:36.236Z,4.53
2019-06-26T13:57:40.713Z,4.00
2019-06-26T13:58:45.804Z,4.00
2019-06-26T13:59:50.220Z,4.42
2019-06-26T14:00:55.225Z,4.55
2019-06-26T14:01:59.767Z,4.58
2019-06-26T14:03:04.865Z,4.60
2019-06-26T14:04:09.346Z,4.00
2019-06-26T14:05:15.332Z,4.33
2019-06-26T14:06:19.951Z,4.30
2019-06-26T14:07:25.011Z,5.08
2019-06-26T14:08:32.723Z,4.20
2019-06-26T14:09:36.128Z,3.98
2019-06-26T14:10:40.587Z,3.90
2019-06-26T14:11:45.662Z,3.98